Time;durP1;ratioP1;P1;durP2;ratioP2;P2;SDS_P1;SDS_P2;PMS_P1;PMS_P2;Temp;Humidity;BMP_temperature;BMP_pressure;BME280_temperature;BME280_humidity;BME280_pressure;Samples;Min_cycle;Max_cycle;Signal;HPM_P1;HPM_P2
2024/04/21 00:01:48;;;;;;;1.10;1.10;;;;;;;;;;5383062;26;20000;-62
2024/04/21 00:04:13;;;;;;;1.33;1.23;;;;;;;;;;5383111;26;20323;-61
2024/04/21 00:06:39;;;;;;;1.98;1.77;;;;;;;;;;5383023;26;20441;-61
2024/04/21 00:09:04;;;;;;;1.42;1.40;;;;;;;;;;5383027;26;20011;-61
2024/04/21 00:11:29;;;;;;;1.48;1.38;;;;;;;;;;5382953;26;20004;-61
2024/04/21 00:13:55;;;;;;;1.50;1.40;;;;;;;;;;5382646;26;20003;-61
2024/04/21 00:16:20;;;;;;;1.85;1.30;;;;;;;;;;5382942;26;20008;-61
2024/04/21 00:18:46;;;;;;;1.40;1.30;;;;;;;;;;5381382;26;19996;-61
2024/04/21 00:21:11;;;;;;;1.20;1.20;;;;;;;;;;5379914;26;20653;-61
2024/04/21 00:23:38;;;;;;;1.73;1.52;;;;;;;;;;5379763;26;20014;-61
2024/04/21 00:26:03;;;;;;;3.35;1.65;;;;;;;;;;5379314;26;20010;-62
2024/04/21 00:28:30;;;;;;;1.90;1.80;;;;;;;;;;5349013;26;20012;-61
2024/04/21 00:30:56;;;;;;;1.58;1.48;;;;;;;;;;5349521;26;20000;-61
2024/04/21 00:33:21;;;;;;;1.58;1.48;;;;;;;;;;5348883;26;20005;-61
2024/04/21 00:35:46;;;;;;;2.22;2.13;;;;;;;;;;5380237;26;20397;-62
2024/04/21 00:38:12;;;;;;;1.60;1.50;;;;;;;;;;5380197;26;20004;-62
2024/04/21 00:40:38;;;;;;;1.77;1.67;;;;;;;;;;5380487;26;20000;-61
2024/04/21 00:43:04;;;;;;;1.50;1.40;;;;;;;;;;5382448;26;20010;-61
2024/04/21 00:45:31;;;;;;;1.60;1.50;;;;;;;;;;5379145;26;20439;-61
2024/04/21 00:47:56;;;;;;;1.88;1.77;;;;;;;;;;5379277;26;20636;-61
2024/04/21 00:50:22;;;;;;;2.55;1.85;;;;;;;;;;5379408;26;20039;-61
2024/04/21 00:52:48;;;;;;;1.45;1.35;;;;;;;;;;5379189;26;20001;-61
2024/04/21 00:55:14;;;;;;;2.33;2.13;;;;;;;;;;5379357;26;20066;-61
2024/04/21 00:57:40;;;;;;;2.10;2.00;;;;;;;;;;5348318;26;20004;-61
2024/04/21 01:00:07;;;;;;;1.90;1.80;;;;;;;;;;5380956;26;20004;-62
2024/04/21 01:02:33;;;;;;;2.38;2.17;;;;;;;;;;5351294;26;19996;-61
2024/04/21 01:04:58;;;;;;;1.73;1.63;;;;;;;;;;5382056;26;19992;-61
2024/04/21 01:07:24;;;;;;;1.90;1.80;;;;;;;;;;5381922;26;20004;-61
2024/04/21 01:09:49;;;;;;;2.05;1.85;;;;;;;;;;5381826;26;20004;-61
2024/04/21 01:12:15;;;;;;;1.58;1.48;;;;;;;;;;5381814;26;20000;-61
2024/04/21 01:14:40;;;;;;;2.08;1.98;;;;;;;;;;5381884;26;20000;-61
2024/04/21 01:17:05;;;;;;;2.08;1.98;;;;;;;;;;5381844;26;19996;-61
2024/04/21 01:19:31;;;;;;;1.63;1.52;;;;;;;;;;5350773;26;20330;-61
2024/04/21 01:21:56;;;;;;;1.88;1.77;;;;;;;;;;5381325;26;20323;-61
2024/04/21 01:24:22;;;;;;;1.60;1.50;;;;;;;;;;5381699;26;20000;-61
2024/04/21 01:26:47;;;;;;;2.10;2.00;;;;;;;;;;5353975;26;20008;-61
2024/04/21 01:29:12;;;;;;;2.00;1.90;;;;;;;;;;5354403;26;20435;-61
2024/04/21 01:31:38;;;;;;;2.03;1.52;;;;;;;;;;5385028;26;20315;-61
2024/04/21 01:34:03;;;;;;;1.40;1.40;;;;;;;;;;5354432;26;20044;-61
2024/04/21 01:36:29;;;;;;;1.52;1.42;;;;;;;;;;5384971;26;19992;-61
2024/04/21 01:38:54;;;;;;;1.50;1.40;;;;;;;;;;5385092;26;20004;-61
2024/04/21 01:41:20;;;;;;;1.80;1.70;;;;;;;;;;5354200;26;19996;-61
2024/04/21 01:43:45;;;;;;;1.98;1.88;;;;;;;;;;5384964;26;20007;-61
2024/04/21 01:46:10;;;;;;;1.75;1.65;;;;;;;;;;5385304;26;20085;-62
2024/04/21 01:48:36;;;;;;;1.58;1.48;;;;;;;;;;5385035;26;19992;-61
2024/04/21 01:51:01;;;;;;;1.95;1.85;;;;;;;;;;5384976;26;19996;-61
2024/04/21 01:53:27;;;;;;;1.85;1.75;;;;;;;;;;5384835;26;19993;-61
2024/04/21 01:55:52;;;;;;;2.25;2.00;;;;;;;;;;5384947;26;20441;-61
2024/04/21 01:58:18;;;;;;;1.90;1.80;;;;;;;;;;5384845;26;20091;-62
2024/04/21 02:00:43;;;;;;;1.85;1.75;;;;;;;;;;5384810;26;19996;-62
2024/04/21 02:03:08;;;;;;;2.70;1.98;;;;;;;;;;5354054;26;19996;-61
2024/04/21 02:05:34;;;;;;;1.90;1.80;;;;;;;;;;5353973;26;19996;-62
2024/04/21 02:07:59;;;;;;;1.80;1.70;;;;;;;;;;5384714;26;19996;-62
2024/04/21 02:10:25;;;;;;;2.10;2.00;;;;;;;;;;5384749;26;20069;-61
2024/04/21 02:12:50;;;;;;;2.13;2.03;;;;;;;;;;5384624;26;19997;-61
2024/04/21 02:15:16;;;;;;;2.47;2.38;;;;;;;;;;5384661;26;19992;-61
2024/04/21 02:17:42;;;;;;;2.35;2.20;;;;;;;;;;5384685;26;20004;-61
2024/04/21 02:20:08;;;;;;;2.30;2.20;;;;;;;;;;5384603;26;20070;-62
2024/04/21 02:22:33;;;;;;;2.47;2.30;;;;;;;;;;5384158;26;19996;-62
2024/04/21 02:24:58;;;;;;;2.08;1.98;;;;;;;;;;5384555;26;20500;-62
2024/04/21 02:27:24;;;;;;;2.28;2.17;;;;;;;;;;5384505;26;20000;-61
2024/04/21 02:29:49;;;;;;;2.30;2.20;;;;;;;;;;5384440;26;20001;-62
2024/04/21 02:32:14;;;;;;;2.20;2.10;;;;;;;;;;5384353;26;20047;-62
2024/04/21 02:34:40;;;;;;;2.65;2.55;;;;;;;;;;5384416;26;20000;-62
2024/04/21 02:37:05;;;;;;;2.53;2.42;;;;;;;;;;5382874;26;20014;-62
2024/04/21 02:39:30;;;;;;;2.05;1.95;;;;;;;;;;5384322;26;20323;-62
2024/04/21 02:41:56;;;;;;;2.42;2.33;;;;;;;;;;5384271;26;19996;-62
2024/04/21 02:44:21;;;;;;;2.10;2.00;;;;;;;;;;5384314;26;20322;-62
2024/04/21 02:46:47;;;;;;;2.63;2.40;;;;;;;;;;5353272;26;20318;-62
2024/04/21 02:49:13;;;;;;;2.10;2.00;;;;;;;;;;5383983;26;20000;-62
2024/04/21 02:51:38;;;;;;;2.70;2.00;;;;;;;;;;5384226;26;20011;-61
2024/04/21 02:54:04;;;;;;;2.22;2.13;;;;;;;;;;5384091;26;20381;-61
2024/04/21 02:56:29;;;;;;;2.22;2.13;;;;;;;;;;5384129;26;20388;-62
2024/04/21 02:58:54;;;;;;;2.40;2.30;;;;;;;;;;5384104;26;20065;-62
2024/04/21 03:01:20;;;;;;;2.70;2.60;;;;;;;;;;5383997;26;19992;-62
2024/04/21 03:03:48;;;;;;;3.08;2.97;;;;;;;;;;5384026;26;20407;-62
2024/04/21 03:06:14;;;;;;;2.65;2.45;;;;;;;;;;5383928;26;20392;-61
2024/04/21 03:08:41;;;;;;;2.53;2.42;;;;;;;;;;5383902;26;20000;-62
2024/04/21 03:11:06;;;;;;;2.72;2.63;;;;;;;;;;5383876;26;20423;-62
2024/04/21 03:13:33;;;;;;;2.97;2.78;;;;;;;;;;5383729;26;19996;-62
2024/04/21 03:16:01;;;;;;;2.63;2.50;;;;;;;;;;5383880;26;20001;-62
2024/04/21 03:18:26;;;;;;;2.83;2.67;;;;;;;;;;5383785;26;19996;-62
2024/04/21 03:20:58;;;;;;;2.90;2.70;;;;;;;;;;5383670;26;20023;-62
2024/04/21 03:23:23;;;;;;;3.38;2.92;;;;;;;;;;5383672;26;20008;-62
2024/04/21 03:25:49;;;;;;;4.55;3.58;;;;;;;;;;5384004;26;20081;-62
2024/04/21 03:28:14;;;;;;;6.60;5.55;;;;;;;;;;5384007;26;20071;-62
2024/04/21 03:30:40;;;;;;;5.25;4.63;;;;;;;;;;5383935;26;20011;-62
2024/04/21 03:33:05;;;;;;;3.67;3.38;;;;;;;;;;5383812;26;20000;-62
2024/04/21 03:35:30;;;;;;;3.38;3.17;;;;;;;;;;5383903;26;20003;-62
2024/04/21 03:37:56;;;;;;;3.67;3.38;;;;;;;;;;5383829;26;20007;-62
2024/04/21 03:40:21;;;;;;;6.00;5.47;;;;;;;;;;5383725;26;19992;-62
2024/04/21 03:42:47;;;;;;;6.15;5.55;;;;;;;;;;5383724;26;20003;-61
2024/04/21 03:45:12;;;;;;;5.88;5.30;;;;;;;;;;5383763;26;19992;-62
2024/04/21 03:47:38;;;;;;;9.95;8.90;;;;;;;;;;5382596;26;19997;-62
2024/04/21 03:50:03;;;;;;;8.05;7.35;;;;;;;;;;5383489;26;20423;-62
2024/04/21 03:52:29;;;;;;;13.52;11.18;;;;;;;;;;5383186;26;20000;-62
2024/04/21 03:54:54;;;;;;;21.73;18.33;;;;;;;;;;5352498;26;20435;-62
2024/04/21 03:57:19;;;;;;;10.70;9.63;;;;;;;;;;5352284;26;20007;-62
2024/04/21 03:59:45;;;;;;;4.30;4.00;;;;;;;;;;5352610;26;19996;-61
2024/04/21 04:02:10;;;;;;;5.05;3.97;;;;;;;;;;5383114;26;20003;-61
2024/04/21 04:04:36;;;;;;;4.32;3.92;;;;;;;;;;5383404;26;19996;-61
2024/04/21 04:07:02;;;;;;;5.25;4.82;;;;;;;;;;5383282;26;20070;-61
2024/04/21 04:09:27;;;;;;;4.95;4.65;;;;;;;;;;5383064;26;19997;-62
2024/04/21 04:11:52;;;;;;;10.05;9.05;;;;;;;;;;5382896;26;19992;-62
2024/04/21 04:14:18;;;;;;;8.18;7.38;;;;;;;;;;5383097;26;20431;-62
2024/04/21 04:16:43;;;;;;;5.40;4.90;;;;;;;;;;5352794;26;20004;-62
2024/04/21 04:19:09;;;;;;;12.27;10.18;;;;;;;;;;5383014;26;20007;-62
2024/04/21 04:21:34;;;;;;;20.23;11.48;;;;;;;;;;5382723;26;19997;-62
2024/04/21 04:24:00;;;;;;;8.00;5.90;;;;;;;;;;5382264;26;20012;-62
2024/04/21 04:26:25;;;;;;;3.83;3.53;;;;;;;;;;5382619;26;20068;-62
2024/04/21 04:28:51;;;;;;;3.92;3.60;;;;;;;;;;5382328;26;20008;-62
2024/04/21 04:31:16;;;;;;;3.85;3.55;;;;;;;;;;5351564;26;20000;-61
2024/04/21 04:33:41;;;;;;;3.85;3.60;;;;;;;;;;5382128;26;19992;-61
2024/04/21 04:36:07;;;;;;;4.55;4.25;;;;;;;;;;5382264;26;19992;-61
2024/04/21 04:38:32;;;;;;;4.85;4.45;;;;;;;;;;5382116;26;20003;-61
2024/04/21 04:40:57;;;;;;;3.78;3.50;;;;;;;;;;5382026;26;20020;-61
2024/04/21 04:43:23;;;;;;;3.70;3.50;;;;;;;;;;5382286;26;19992;-61
2024/04/21 04:45:49;;;;;;;4.10;3.80;;;;;;;;;;5351276;26;19992;-61
2024/04/21 04:48:14;;;;;;;3.58;3.28;;;;;;;;;;5382129;26;20454;-61
2024/04/21 04:50:40;;;;;;;3.58;3.28;;;;;;;;;;5350934;26;20004;-61
2024/04/21 04:53:05;;;;;;;3.95;3.75;;;;;;;;;;5381960;26;20000;-61
2024/04/21 04:55:31;;;;;;;5.07;4.20;;;;;;;;;;5381895;26;20000;-61
2024/04/21 04:57:56;;;;;;;3.85;3.55;;;;;;;;;;5381604;26;19992;-61
2024/04/21 05:00:21;;;;;;;4.03;3.72;;;;;;;;;;5382888;26;20397;-61
2024/04/21 05:03:06;;;;;;;5.68;4.15;;;;;;;;;;5385392;26;20065;-61
2024/04/21 05:05:31;;;;;;;4.63;4.32;;;;;;;;;;5385509;26;20000;-61
2024/04/21 05:07:58;;;;;;;4.68;4.28;;;;;;;;;;5385491;26;20027;-61
2024/04/21 05:10:23;;;;;;;5.03;4.28;;;;;;;;;;5385188;26;20014;-61
2024/04/21 05:12:49;;;;;;;5.88;5.38;;;;;;;;;;5385109;26;20431;-61
2024/04/21 05:15:14;;;;;;;34.88;23.67;;;;;;;;;;5354337;26;20057;-60
2024/04/21 05:17:39;;;;;;;5.70;5.10;;;;;;;;;;5398118;21;20012;-56
2024/04/21 05:20:06;;;;;;;7.15;6.00;;;;;;;;;;5382080;26;19993;-56
2024/04/21 05:22:31;;;;;;;12.07;8.57;;;;;;;;;;5381813;26;20500;-59
2024/04/21 05:25:00;;;;;;;97.45;69.43;;;;;;;;;;5394243;21;20005;31
2024/04/21 05:27:26;;;;;;;98.13;47.65;;;;;;;;;;5418666;26;20071;-62
2024/04/21 05:29:54;;;;;;;217.15;89.55;;;;;;;;;;5420795;26;20006;-62
2024/04/21 05:32:20;;;;;;;14.90;10.38;;;;;;;;;;5420670;26;20006;-56
2024/04/21 05:34:45;;;;;;;59.65;24.45;;;;;;;;;;5420738;26;19996;-56
2024/04/21 05:37:10;;;;;;;44.92;20.42;;;;;;;;;;5389303;26;20010;-55
2024/04/21 05:39:36;;;;;;;198.98;64.53;;;;;;;;;;5420668;26;19999;-55
2024/04/21 05:42:01;;;;;;;81.55;34.03;;;;;;;;;;5420584;26;20036;-55
2024/04/21 05:44:27;;;;;;;8.02;6.07;;;;;;;;;;5420569;26;20672;-55
2024/04/21 05:46:53;;;;;;;5.07;4.38;;;;;;;;;;5420597;26;20454;-55
2024/04/21 05:49:19;;;;;;;6.55;5.95;;;;;;;;;;5420533;26;19993;-55
2024/04/21 05:51:45;;;;;;;6.88;5.63;;;;;;;;;;5420496;26;20073;-55
2024/04/21 05:54:10;;;;;;;6.25;5.72;;;;;;;;;;5419915;26;19996;-55
2024/04/21 05:56:35;;;;;;;6.68;5.90;;;;;;;;;;5420439;26;20339;-55
2024/04/21 05:59:01;;;;;;;6.45;5.85;;;;;;;;;;5388671;26;20000;-55
2024/04/21 06:01:26;;;;;;;6.85;6.15;;;;;;;;;;5389149;26;20010;-57
2024/04/21 06:03:51;;;;;;;8.30;7.45;;;;;;;;;;5389288;26;20011;-56
2024/04/21 06:06:21;;;;;;;7.05;6.35;;;;;;;;;;5420292;26;20461;-57
2024/04/21 06:08:47;;;;;;;8.13;6.77;;;;;;;;;;5420248;26;20068;-55
2024/04/21 06:11:12;;;;;;;8.38;6.75;;;;;;;;;;5419950;26;20671;-55
2024/04/21 06:13:37;;;;;;;22.40;8.80;;;;;;;;;;5420152;26;19996;-55
2024/04/21 06:16:03;;;;;;;12.38;7.50;;;;;;;;;;5388700;26;20006;-55
2024/04/21 06:18:28;;;;;;;5.32;4.70;;;;;;;;;;5420198;26;20008;-55
2024/04/21 06:20:54;;;;;;;5.43;3.85;;;;;;;;;;5419790;26;20330;-55
2024/04/21 06:23:19;;;;;;;4.78;4.38;;;;;;;;;;5420044;26;19998;-56
2024/04/21 06:25:44;;;;;;;5.90;5.30;;;;;;;;;;5419773;26;20017;-56
2024/04/21 06:28:11;;;;;;;11.63;7.07;;;;;;;;;;5420261;26;20005;-56
2024/04/21 06:30:37;;;;;;;9.98;5.97;;;;;;;;;;5419935;26;20023;-56
2024/04/21 06:33:02;;;;;;;8.63;5.18;;;;;;;;;;5419848;26;20397;-55
2024/04/21 06:35:29;;;;;;;9.98;5.95;;;;;;;;;;5419876;26;20313;-56
2024/04/21 06:37:54;;;;;;;21.20;6.30;;;;;;;;;;5419874;26;20000;-56
2024/04/21 06:40:19;;;;;;;19.95;7.22;;;;;;;;;;5419854;26;20064;-56
2024/04/21 06:42:45;;;;;;;15.38;7.05;;;;;;;;;;5419856;26;20433;-56
2024/04/21 06:45:10;;;;;;;6.80;4.72;;;;;;;;;;5419601;26;20007;-56
2024/04/21 06:47:35;;;;;;;14.63;7.07;;;;;;;;;;5419708;26;20026;-56
2024/04/21 06:50:01;;;;;;;23.42;8.35;;;;;;;;;;5419646;26;19999;-56
2024/04/21 06:52:26;;;;;;;8.15;5.30;;;;;;;;;;5419513;26;20003;-56
2024/04/21 06:54:52;;;;;;;5.93;5.22;;;;;;;;;;5419554;26;20006;-56
2024/04/21 06:57:18;;;;;;;6.82;5.18;;;;;;;;;;5388411;26;19995;-56
2024/04/21 06:59:43;;;;;;;148.98;48.40;;;;;;;;;;5419568;26;20470;-56
2024/04/21 07:02:08;;;;;;;9.88;5.43;;;;;;;;;;5419579;26;20309;-56
2024/04/21 07:04:34;;;;;;;10.90;6.00;;;;;;;;;;5419504;26;20326;-56
2024/04/21 07:07:00;;;;;;;6.80;5.20;;;;;;;;;;5419279;26;20006;-56
2024/04/21 07:09:25;;;;;;;8.25;4.88;;;;;;;;;;5419470;26;20000;-57
2024/04/21 07:11:51;;;;;;;34.60;18.65;;;;;;;;;;5419317;26;20000;-56
2024/04/21 07:14:17;;;;;;;52.50;27.13;;;;;;;;;;5419194;26;20011;-56
2024/04/21 07:16:42;;;;;;;28.50;16.80;;;;;;;;;;5388130;26;20430;-58
2024/04/21 07:19:07;;;;;;;5.03;4.07;;;;;;;;;;5419180;26;20415;-58
2024/04/21 07:21:33;;;;;;;13.55;9.77;;;;;;;;;;5419207;26;20317;-58
2024/04/21 07:23:58;;;;;;;9.07;6.15;;;;;;;;;;5418131;26;19991;-58
2024/04/21 07:26:24;;;;;;;8.60;4.75;;;;;;;;;;5418702;26;19995;-58
2024/04/21 07:28:50;;;;;;;8.45;6.25;;;;;;;;;;5387848;26;20442;-56
2024/04/21 07:31:16;;;;;;;13.05;9.05;;;;;;;;;;5387842;26;20003;-56
2024/04/21 07:33:41;;;;;;;21.02;13.90;;;;;;;;;;5419047;26;20423;-56
2024/04/21 07:36:06;;;;;;;13.85;9.73;;;;;;;;;;5419040;26;20352;-56
2024/04/21 07:38:32;;;;;;;5.47;4.97;;;;;;;;;;5387815;26;19995;-55
2024/04/21 07:40:57;;;;;;;13.25;8.77;;;;;;;;;;5418976;26;20010;-56
2024/04/21 07:43:23;;;;;;;12.02;7.72;;;;;;;;;;5419223;26;20065;-56
2024/04/21 07:45:51;;;;;;;5.95;4.95;;;;;;;;;;5418708;26;20007;-56
2024/04/21 07:48:17;;;;;;;15.13;9.95;;;;;;;;;;5387604;26;20032;-57
2024/04/21 07:50:45;;;;;;;8.38;6.93;;;;;;;;;;5418730;26;19996;-56
2024/04/21 07:53:11;;;;;;;4.85;4.32;;;;;;;;;;5418786;26;19999;-55
2024/04/21 07:55:36;;;;;;;4.05;3.75;;;;;;;;;;5418589;26;20330;-56
2024/04/21 07:58:02;;;;;;;5.82;5.32;;;;;;;;;;5418622;26;19991;-56
2024/04/21 08:00:28;;;;;;;10.38;8.10;;;;;;;;;;5418626;26;20063;-56
2024/04/21 08:02:53;;;;;;;13.50;11.88;;;;;;;;;;5418295;26;20008;-56
2024/04/21 08:05:19;;;;;;;10.50;9.07;;;;;;;;;;5418335;26;19999;-56
2024/04/21 08:07:44;;;;;;;9.80;8.23;;;;;;;;;;5418376;26;19991;-56
2024/04/21 08:10:10;;;;;;;9.68;6.85;;;;;;;;;;5418530;26;20007;-62
2024/04/21 08:12:35;;;;;;;19.23;14.20;;;;;;;;;;5418461;26;20007;-63
2024/04/21 08:15:05;;;;;;;14.65;10.85;;;;;;;;;;5418328;26;20318;-61
2024/04/21 08:17:33;;;;;;;13.02;9.70;;;;;;;;;;5387117;26;20006;-61
2024/04/21 08:19:59;;;;;;;7.15;5.72;;;;;;;;;;5418537;26;20036;-61
2024/04/21 08:22:24;;;;;;;9.90;9.10;;;;;;;;;;5417664;26;20003;-64
2024/04/21 08:24:50;;;;;;;5.25;4.80;;;;;;;;;;5417890;26;19999;-65
2024/04/21 08:27:15;;;;;;;5.35;4.40;;;;;;;;;;5371685;26;1230269;-64
2024/04/21 08:29:40;;;;;;;5.20;4.70;;;;;;;;;;5416666;26;20002;-65
2024/04/21 08:32:06;;;;;;;6.38;5.78;;;;;;;;;;5417696;26;20007;-65
2024/04/21 08:34:33;;;;;;;6.78;5.40;;;;;;;;;;5388075;26;20007;-65
2024/04/21 08:36:58;;;;;;;28.50;20.30;;;;;;;;;;5419998;26;20379;-65
2024/04/21 08:39:24;;;;;;;21.90;17.77;;;;;;;;;;5390225;26;19999;-65
2024/04/21 08:41:49;;;;;;;6.18;5.57;;;;;;;;;;5421498;26;20422;-65
2024/04/21 08:44:15;;;;;;;6.50;5.40;;;;;;;;;;5421384;26;20342;-65
2024/04/21 08:46:41;;;;;;;6.85;6.32;;;;;;;;;;5421368;26;20010;-65
2024/04/21 08:49:06;;;;;;;4.35;4.05;;;;;;;;;;5421369;26;20002;-65
2024/04/21 08:51:33;;;;;;;4.25;3.95;;;;;;;;;;5421366;26;20003;-65
2024/04/21 08:53:59;;;;;;;5.15;4.57;;;;;;;;;;5421087;26;20006;-65
2024/04/21 08:56:27;;;;;;;5.72;5.28;;;;;;;;;;5421340;26;19996;-65
2024/04/21 08:58:53;;;;;;;4.50;4.20;;;;;;;;;;5421080;26;20000;-65
2024/04/21 09:01:19;;;;;;;4.55;4.15;;;;;;;;;;5421743;26;20006;-59
2024/04/21 09:03:48;;;;;;;5.30;4.90;;;;;;;;;;5421198;26;19992;-56
2024/04/21 09:06:15;;;;;;;4.00;3.65;;;;;;;;;;5389696;26;20007;-56
2024/04/21 09:08:41;;;;;;;5.03;4.60;;;;;;;;;;5389570;26;19995;-55
2024/04/21 09:11:07;;;;;;;4.53;4.15;;;;;;;;;;5421160;26;20000;-55
2024/04/21 09:13:33;;;;;;;4.15;3.65;;;;;;;;;;5421279;26;20317;-55
2024/04/21 09:15:58;;;;;;;4.20;3.92;;;;;;;;;;5421055;26;20062;-55
2024/04/21 09:18:24;;;;;;;5.50;5.03;;;;;;;;;;5421068;26;20315;-59
2024/04/21 09:20:50;;;;;;;4.68;4.38;;;;;;;;;;5420971;26;20004;-55
2024/04/21 09:23:15;;;;;;;5.20;4.70;;;;;;;;;;5420919;26;20384;-55
2024/04/21 09:25:40;;;;;;;4.13;3.72;;;;;;;;;;5420725;26;20065;-55
2024/04/21 09:28:06;;;;;;;7.03;5.70;;;;;;;;;;5421209;26;20000;-55
2024/04/21 09:30:31;;;;;;;5.15;4.65;;;;;;;;;;5421095;26;20010;-55
2024/04/21 09:32:57;;;;;;;5.88;4.88;;;;;;;;;;5421004;26;19999;-55
2024/04/21 09:35:22;;;;;;;4.38;4.07;;;;;;;;;;5421000;26;20011;-55
2024/04/21 09:37:47;;;;;;;5.43;4.88;;;;;;;;;;5420940;26;20006;-55
2024/04/21 09:40:14;;;;;;;33.67;21.90;;;;;;;;;;5421270;26;19992;-55
2024/04/21 09:42:40;;;;;;;6.03;5.53;;;;;;;;;;5420957;26;20007;-55
2024/04/21 09:45:07;;;;;;;3.90;3.65;;;;;;;;;;5420740;26;19996;-55
2024/04/21 09:47:33;;;;;;;3.78;3.47;;;;;;;;;;5420200;26;20010;-55
2024/04/21 09:50:01;;;;;;;4.97;4.60;;;;;;;;;;5420360;26;19995;-55
2024/04/21 09:52:27;;;;;;;5.00;4.60;;;;;;;;;;5420531;26;20004;-55
2024/04/21 09:54:53;;;;;;;4.30;4.00;;;;;;;;;;5360083;26;20028;-55
2024/04/21 09:57:18;;;;;;;4.55;4.10;;;;;;;;;;5420454;26;20067;-55
2024/04/21 09:59:45;;;;;;;3.85;3.45;;;;;;;;;;5420414;26;20007;-55
2024/04/21 10:02:22;;;;;;;5.03;4.63;;;;;;;;;;5420054;26;19996;-55
2024/04/21 10:04:51;;;;;;;4.50;4.18;;;;;;;;;;5420386;26;19999;-62
2024/04/21 10:07:18;;;;;;;4.22;3.60;;;;;;;;;;5388521;26;20354;-62
2024/04/21 10:09:46;;;;;;;9.27;8.05;;;;;;;;;;5420299;26;19995;-62
2024/04/21 10:12:11;;;;;;;4.70;4.30;;;;;;;;;;5420139;26;19995;-62
2024/04/21 10:14:37;;;;;;;6.22;4.68;;;;;;;;;;5420263;26;20007;-62
2024/04/21 10:17:05;;;;;;;6.68;6.00;;;;;;;;;;5420004;26;20015;-62
2024/04/21 10:19:32;;;;;;;7.20;6.45;;;;;;;;;;5419925;26;20076;-62
2024/04/21 10:21:57;;;;;;;6.63;5.93;;;;;;;;;;5420081;26;20003;-62
2024/04/21 10:24:25;;;;;;;5.05;4.75;;;;;;;;;;5420010;26;20003;-62
2024/04/21 10:27:03;;;;;;;8.10;7.35;;;;;;;;;;5388670;26;20010;-62
2024/04/21 10:29:29;;;;;;;8.77;7.88;;;;;;;;;;5420153;26;20010;-62
2024/04/21 10:31:55;;;;;;;5.28;4.82;;;;;;;;;;5388924;26;19996;-62
2024/04/21 10:34:22;;;;;;;4.80;4.40;;;;;;;;;;5388957;26;20072;-62
2024/04/21 10:36:48;;;;;;;5.43;4.93;;;;;;;;;;5388815;26;19992;-62
2024/04/21 10:39:25;;;;;;;6.95;5.25;;;;;;;;;;5388752;26;19999;-62
2024/04/21 10:41:55;;;;;;;10.50;8.45;;;;;;;;;;5420166;26;20010;-62
2024/04/21 10:44:21;;;;;;;5.60;5.15;;;;;;;;;;5419846;26;20010;-62
2024/04/21 10:46:46;;;;;;;5.72;5.13;;;;;;;;;;5419616;26;19999;-62
2024/04/21 10:49:12;;;;;;;6.32;5.72;;;;;;;;;;5419955;26;20023;-62
2024/04/21 10:51:37;;;;;;;5.45;4.95;;;;;;;;;;5419669;26;19996;-62
2024/04/21 10:54:03;;;;;;;4.55;4.25;;;;;;;;;;5419581;26;20003;-62
2024/04/21 10:56:28;;;;;;;4.10;3.70;;;;;;;;;;5419605;26;19996;-62
2024/04/21 10:58:54;;;;;;;3.17;2.97;;;;;;;;;;5418158;26;19991;-62
2024/04/21 11:01:19;;;;;;;3.30;3.08;;;;;;;;;;5419206;26;20004;-62
2024/04/21 11:03:44;;;;;;;4.75;4.40;;;;;;;;;;5419446;26;19996;-62
2024/04/21 11:06:10;;;;;;;4.60;4.30;;;;;;;;;;5388299;26;19999;-62
2024/04/21 11:08:36;;;;;;;5.07;4.68;;;;;;;;;;5419457;26;20026;-62
2024/04/21 11:11:02;;;;;;;3.55;3.28;;;;;;;;;;5419462;26;20023;-62
2024/04/21 11:13:27;;;;;;;4.25;3.90;;;;;;;;;;5419151;26;19995;-62
2024/04/21 11:15:53;;;;;;;5.30;4.82;;;;;;;;;;5419135;26;20010;-62
2024/04/21 11:18:18;;;;;;;13.23;8.07;;;;;;;;;;5419096;26;20067;-62
2024/04/21 11:20:44;;;;;;;6.55;4.75;;;;;;;;;;5419350;26;20510;-62
2024/04/21 11:23:13;;;;;;;6.00;5.40;;;;;;;;;;5387723;26;20019;-62
2024/04/21 11:25:39;;;;;;;4.68;4.15;;;;;;;;;;5387687;26;19992;-62
2024/04/21 11:28:11;;;;;;;4.40;4.00;;;;;;;;;;5419167;26;20076;-62
2024/04/21 11:30:36;;;;;;;6.95;6.35;;;;;;;;;;5418954;26;20068;-62
2024/04/21 11:33:02;;;;;;;5.97;5.47;;;;;;;;;;5418983;26;20422;-65
2024/04/21 11:35:28;;;;;;;5.28;4.78;;;;;;;;;;5419073;26;20394;-65
2024/04/21 11:37:53;;;;;;;4.82;4.45;;;;;;;;;;5419009;26;20072;-65
2024/04/21 11:40:19;;;;;;;4.78;4.47;;;;;;;;;;5419042;26;20440;-65
2024/04/21 11:42:44;;;;;;;8.82;6.30;;;;;;;;;;5387536;26;20023;-62
2024/04/21 11:45:10;;;;;;;32.22;28.73;;;;;;;;;;5419004;26;20068;-62
2024/04/21 11:47:35;;;;;;;4.80;4.40;;;;;;;;;;5418944;26;20073;-55
2024/04/21 11:50:03;;;;;;;4.80;4.50;;;;;;;;;;5418778;26;20418;-55
2024/04/21 11:52:28;;;;;;;18.05;11.75;;;;;;;;;;5418416;26;20032;-55
2024/04/21 11:54:54;;;;;;;4.20;3.90;;;;;;;;;;5418735;26;20446;-55
2024/04/21 11:57:20;;;;;;;3.38;3.15;;;;;;;;;;5408840;26;20076;-55
2024/04/21 11:59:45;;;;;;;5.63;3.78;;;;;;;;;;5418049;26;20413;-55
2024/04/21 12:02:10;;;;;;;6.55;5.85;;;;;;;;;;5386828;26;19999;-55
2024/04/21 12:04:36;;;;;;;6.22;5.63;;;;;;;;;;5386640;26;20003;-55
2024/04/21 12:07:02;;;;;;;4.57;4.28;;;;;;;;;;5417879;26;19991;-55
2024/04/21 12:09:28;;;;;;;5.15;4.63;;;;;;;;;;5416905;26;20011;-55
2024/04/21 12:11:54;;;;;;;6.82;6.15;;;;;;;;;;5417703;26;20014;-55
2024/04/21 12:14:24;;;;;;;3.97;3.67;;;;;;;;;;5417557;26;20004;-55
2024/04/21 12:16:50;;;;;;;5.82;5.32;;;;;;;;;;5417667;26;20004;-55
2024/04/21 12:19:15;;;;;;;5.22;4.72;;;;;;;;;;5417518;26;20000;-55
2024/04/21 12:21:41;;;;;;;4.93;4.47;;;;;;;;;;5417547;26;20416;-55
2024/04/21 12:24:06;;;;;;;8.60;6.45;;;;;;;;;;5417785;26;20005;-55
2024/04/21 12:26:31;;;;;;;7.50;5.38;;;;;;;;;;5416971;26;20073;-55
2024/04/21 12:28:57;;;;;;;4.32;3.92;;;;;;;;;;5417321;26;20011;-55
2024/04/21 12:31:22;;;;;;;4.68;4.05;;;;;;;;;;5386330;26;20430;-56
2024/04/21 12:33:47;;;;;;;5.90;5.40;;;;;;;;;;5417037;26;20007;-55
2024/04/21 12:36:13;;;;;;;12.98;7.20;;;;;;;;;;5386057;26;19999;-62
2024/04/21 12:38:38;;;;;;;56.22;18.42;;;;;;;;;;5417092;26;20003;-62
2024/04/21 12:41:07;;;;;;;4.25;3.60;;;;;;;;;;5417037;26;20323;-62
2024/04/21 12:43:33;;;;;;;5.85;4.63;;;;;;;;;;5386863;26;20031;-62
2024/04/21 12:45:58;;;;;;;9.45;7.03;;;;;;;;;;5417066;26;19992;-62
2024/04/21 12:48:24;;;;;;;6.68;5.75;;;;;;;;;;5416740;26;20079;-62
2024/04/21 12:50:50;;;;;;;6.53;5.05;;;;;;;;;;5385527;26;20006;-62
2024/04/21 12:53:15;;;;;;;65.88;32.42;;;;;;;;;;5385465;26;20004;-62
2024/04/21 12:55:41;;;;;;;16.83;8.13;;;;;;;;;;5417034;26;20068;-62
2024/04/21 12:58:06;;;;;;;10.60;5.90;;;;;;;;;;5416766;26;20422;-62
2024/04/21 13:00:31;;;;;;;7.93;5.07;;;;;;;;;;5416829;26;20068;-62
2024/04/21 13:02:57;;;;;;;8.77;6.85;;;;;;;;;;5416992;26;19992;-62
2024/04/21 13:05:22;;;;;;;82.25;27.52;;;;;;;;;;5416453;26;20011;-62
2024/04/21 13:07:48;;;;;;;15.00;6.75;;;;;;;;;;5416801;26;20034;-62
2024/04/21 13:10:13;;;;;;;8.65;6.65;;;;;;;;;;5416824;26;20010;-62
2024/04/21 13:12:39;;;;;;;4.82;4.43;;;;;;;;;;5416478;26;20004;-62
2024/04/21 13:15:04;;;;;;;5.10;4.60;;;;;;;;;;5416878;26;20064;-55
2024/04/21 13:17:30;;;;;;;3.70;3.40;;;;;;;;;;5416340;26;20068;-55
2024/04/21 13:19:55;;;;;;;3.85;3.55;;;;;;;;;;5416587;26;20007;-55
2024/04/21 13:22:20;;;;;;;3.38;3.17;;;;;;;;;;5387644;26;20465;-55
2024/04/21 13:24:46;;;;;;;3.33;3.13;;;;;;;;;;5420467;26;20337;-55
2024/04/21 13:27:13;;;;;;;4.22;3.40;;;;;;;;;;5419856;26;19999;-55
2024/04/21 13:29:38;;;;;;;3.28;3.08;;;;;;;;;;5420346;26;20403;-55
2024/04/21 13:32:11;;;;;;;4.00;3.70;;;;;;;;;;5420367;26;20068;-55
2024/04/21 13:34:36;;;;;;;4.68;4.25;;;;;;;;;;5389380;26;20032;-55
2024/04/21 13:37:02;;;;;;;4.35;3.95;;;;;;;;;;5388805;26;20003;-62
2024/04/21 13:39:51;;;;;;;9.73;8.27;;;;;;;;;;5418608;21;20015;-62
2024/04/21 13:42:16;;;;;;;15.32;11.70;;;;;;;;;;5338553;21;20365;-61
2024/04/21 13:44:45;;;;;;;63.55;31.02;;;;;;;;;;5398157;21;20005;-59
2024/04/21 13:47:10;;;;;;;5.30;4.80;;;;;;;;;;5383702;26;20000;-63
2024/04/21 13:49:36;;;;;;;6.97;5.13;;;;;;;;;;5353271;26;20069;-58
2024/04/21 13:52:01;;;;;;;4.63;4.13;;;;;;;;;;5384144;26;20015;-65
2024/04/21 13:54:27;;;;;;;13.25;11.82;;;;;;;;;;5383814;26;20043;-63
2024/04/21 13:56:53;;;;;;;11.10;7.32;;;;;;;;;;5383711;26;20015;-58
2024/04/21 13:59:24;;;;;;;12.52;11.23;;;;;;;;;;5384151;26;19996;-58
2024/04/21 14:01:50;;;;;;;9.60;8.88;;;;;;;;;;5383796;26;20000;-68
2024/04/21 14:04:15;;;;;;;7.65;5.65;;;;;;;;;;5384014;26;20316;-66
2024/04/21 14:06:41;;;;;;;10.80;7.10;;;;;;;;;;5383626;26;20066;-60
2024/04/21 14:09:06;;;;;;;5.78;4.50;;;;;;;;;;5352856;26;20012;-66
2024/04/21 14:11:32;;;;;;;5.47;3.78;;;;;;;;;;5383865;26;20004;-61
2024/04/21 14:13:58;;;;;;;10.65;5.68;;;;;;;;;;5383991;26;20027;-71
2024/04/21 14:16:24;;;;;;;8.35;5.30;;;;;;;;;;5383682;26;20010;-67
2024/04/21 14:18:50;;;;;;;7.55;4.97;;;;;;;;;;5383613;26;20000;-63
2024/04/21 14:21:16;;;;;;;5.68;4.35;;;;;;;;;;5383639;26;20019;-63
2024/04/21 14:23:41;;;;;;;6.68;4.35;;;;;;;;;;5383771;26;20327;-63
2024/04/21 14:26:06;;;;;;;5.00;4.00;;;;;;;;;;5383626;26;20066;-63
2024/04/21 14:28:32;;;;;;;26.60;11.45;;;;;;;;;;5383483;26;20018;-63
2024/04/21 14:30:58;;;;;;;10.30;6.07;;;;;;;;;;5383497;26;20007;-63